Observation data for Slaton on 11/19/2019      Previous  Date       Current Mesonet Observations  Soil Data  Daily Summary Page  Observations in Plain Language
KSLS 190600Z 16003KT 11/00 A2997 RMK A01 T01120002  RH  047%=      5-min Rain = 0
KSLS 190605Z 18003KT 10/00 A2998 RMK A01 T01040002  RH  050%=      5-min Rain = 0
KSLS 190610Z 18002KT 08/01 A2998 RMK A01 T00830005  RH  059%=      5-min Rain = 0
KSLS 190615Z 17001KT 09/00 A2998 RMK A01 T00910004  RH  055%=      5-min Rain = 0
KSLS 190620Z 00000KT 10/00 A2997 RMK A01 T01000003  RH  051%=      5-min Rain = 0
KSLS 190625Z 05001KT 11/00 A2997 RMK A01 T01090002  RH  048%=      5-min Rain = 0
KSLS 190630Z 03002KT 10/00 A2997 RMK A01 T00950004  RH  054%=      5-min Rain = 0
KSLS 190635Z 02003KT 09/01 A2997 RMK A01 T00890005  RH  056%=      5-min Rain = 0
KSLS 190640Z 01002KT 09/00 A2997 RMK A01 T00900004  RH  055%=      5-min Rain = 0
KSLS 190645Z 33002KT 09/00 A2998 RMK A01 T00870004  RH  057%=      5-min Rain = 0
KSLS 190650Z 32001KT 09/00 A2997 RMK A01 T00900004  RH  055%=      5-min Rain = 0
KSLS 190655Z 33000KT 09/00 A2997 RMK A01 T00940003  RH  054%=      5-min Rain = 0
KSLS 190700Z 23001KT 09/00 A2998 RMK A01 T00860003  RH  057%=      5-min Rain = 0
KSLS 190705Z 22001KT 08/00 A2998 RMK A01 T00800004  RH  059%=      5-min Rain = 0
KSLS 190710Z 22001KT 08/00 A2998 RMK A01 T00810004  RH  059%=      5-min Rain = 0
KSLS 190715Z 22002KT 08/00 A2998 RMK A01 T00820004  RH  058%=      5-min Rain = 0
KSLS 190720Z 24002KT 08/00 A2998 RMK A01 T00770004  RH  061%=      5-min Rain = 0
KSLS 190725Z 26003KT 07/01 A2998 RMK A01 T00720005  RH  063%=      5-min Rain = 0
KSLS 190730Z 26003KT 07/01 A2998 RMK A01 T00710005  RH  064%=      5-min Rain = 0
KSLS 190735Z 26002KT 07/01 A2998 RMK A01 T00710008  RH  065%=      5-min Rain = 0
KSLS 190740Z 24003KT 06/01 A2999 RMK A01 T00640006  RH  067%=      5-min Rain = 0
KSLS 190745Z 22003KT 07/01 A2998 RMK A01 T00680007  RH  066%=      5-min Rain = 0
KSLS 190750Z 23003KT 07/01 A2998 RMK A01 T00710005  RH  064%=      5-min Rain = 0
KSLS 190755Z 22003KT 07/01 A2999 RMK A01 T00710007  RH  065%=      5-min Rain = 0
KSLS 190800Z 22003KT 07/01 A2998 RMK A01 T00730007  RH  064%=      5-min Rain = 0
KSLS 190805Z 22003KT 08/01 A2998 RMK A01 T00770008  RH  063%=      5-min Rain = 0
KSLS 190810Z 21003KT 08/01 A2998 RMK A01 T00830008  RH  060%=      5-min Rain = 0
KSLS 190815Z 21002KT 09/01 A2998 RMK A01 T00880007  RH  057%=      5-min Rain = 0
KSLS 190820Z 22002KT 09/01 A2998 RMK A01 T00910007  RH  056%=      5-min Rain = 0
KSLS 190825Z 24002KT 08/01 A2998 RMK A01 T00820006  RH  060%=      5-min Rain = 0
KSLS 190830Z 23003KT 06/01 A2998 RMK A01 T00640005  RH  067%=      5-min Rain = 0
KSLS 190835Z 23004KT 05/01 A2998 RMK A01 T00510006  RH  074%=      5-min Rain = 0
KSLS 190840Z 23005KT 05/01 A2998 RMK A01 T00510007  RH  074%=      5-min Rain = 0
KSLS 190845Z 23006KT 05/01 A2998 RMK A01 T00490007  RH  075%=      5-min Rain = 0
KSLS 190850Z 24007KT 05/01 A2998 RMK A01 T00460007  RH  077%=      5-min Rain = 0
KSLS 190855Z 25008KT 05/01 A2998 RMK A01 T00480009  RH  076%=      5-min Rain = 0
KSLS 190900Z 25007KT 05/01 A2998 RMK A01 T00460009  RH  078%=      5-min Rain = 0
KSLS 190905Z 26007KT 05/01 A2998 RMK A01 T00520010  RH  075%=      5-min Rain = 0
KSLS 190910Z 26005KT 06/01 A2998 RMK A01 T00570009  RH  072%=      5-min Rain = 0
KSLS 190915Z 27005KT 06/01 A2998 RMK A01 T00590008  RH  071%=      5-min Rain = 0
KSLS 190920Z 28004KT 05/01 A2998 RMK A01 T00530007  RH  073%=      5-min Rain = 0
KSLS 190925Z 30004KT 05/01 A2998 RMK A01 T00510008  RH  074%=      5-min Rain = 0
KSLS 190930Z 29005KT 05/01 A2998 RMK A01 T00510006  RH  074%=      5-min Rain = 0
KSLS 190935Z 29006KT 05/01 A2998 RMK A01 T00470006  RH  075%=      5-min Rain = 0
KSLS 190940Z 30005KT 05/01 A2998 RMK A01 T00490007  RH  075%=      5-min Rain = 0
KSLS 190945Z 33003KT 05/01 A2998 RMK A01 T00540008  RH  073%=      5-min Rain = 0
KSLS 190950Z 35003KT 06/01 A2997 RMK A01 T00620007  RH  069%=      5-min Rain = 0
KSLS 190955Z 35003KT 07/01 A2997 RMK A01 T00690007  RH  065%=      5-min Rain = 0
KSLS 191000Z 34003KT 07/01 A2997 RMK A01 T00710006  RH  064%=      5-min Rain = 0
KSLS 191005Z 33004KT 08/01 A2997 RMK A01 T00750005  RH  062%=      5-min Rain = 0
KSLS 191010Z 32003KT 07/00 A2997 RMK A01 T00720003  RH  062%=      5-min Rain = 0
KSLS 191015Z 33003KT 07/00 A2997 RMK A01 T00680003  RH  064%=      5-min Rain = 0
KSLS 191020Z 33002KT 07/00 A2997 RMK A01 T00660003  RH  065%=      5-min Rain = 0
KSLS 191025Z 34003KT 06/00 A2997 RMK A01 T00640002  RH  066%=      5-min Rain = 0
KSLS 191030Z 33003KT 07/00 A2997 RMK A01 T00650003  RH  065%=      5-min Rain = 0
KSLS 191035Z 34003KT 06/00 A2997 RMK A01 T00640002  RH  065%=      5-min Rain = 0
KSLS 191040Z 35003KT 06/00 A2997 RMK A01 T00630002  RH  066%=      5-min Rain = 0
KSLS 191045Z 36004KT 06/00 A2997 RMK A01 T00620003  RH  067%=      5-min Rain = 0
KSLS 191050Z 00004KT 06/00 A2997 RMK A01 T00610003  RH  067%=      5-min Rain = 0
KSLS 191055Z 01003KT 06/00 A2997 RMK A01 T00590003  RH  068%=      5-min Rain = 0
KSLS 191100Z 01003KT 06/00 A2997 RMK A01 T00590003  RH  068%=      5-min Rain = 0
KSLS 191105Z 01003KT 06/00 A2997 RMK A01 T00600003  RH  067%=      5-min Rain = 0
KSLS 191110Z 28008KT 05/00 A2998 RMK A01 T00510000  RH  071%=      5-min Rain = 0
KSLS 191115Z 29006KT 05/01 A2998 RMK A01 T00490006  RH  075%=      5-min Rain = 0
KSLS 191120Z 29007KT 05/01 A2998 RMK A01 T00500005  RH  074%=      5-min Rain = 0
KSLS 191125Z 30006KT 05/01 A2998 RMK A01 T00490005  RH  074%=      5-min Rain = 0
KSLS 191130Z 29007KT 05/01 A2997 RMK A01 T00480005  RH  075%=      5-min Rain = 0
KSLS 191135Z 30007KT 05/00 A2997 RMK A01 T00450004  RH  076%=      5-min Rain = 0
KSLS 191140Z 32006KT 05/01 A2997 RMK A01 T00490005  RH  074%=      5-min Rain = 0
KSLS 191145Z 33005KT 05/00 A2997 RMK A01 T00530003  RH  071%=      5-min Rain = 0
KSLS 191150Z 32004KT 05/00 A2997 RMK A01 T00530003  RH  071%=      5-min Rain = 0
KSLS 191155Z 32005KT 05/00 A2997 RMK A01 T00510002  RH  072%=      5-min Rain = 0
KSLS 191200Z 34004KT 05/00 A2997 RMK A01 T00490003  RH  073%=      5-min Rain = 0
KSLS 191205Z 33003KT 05/00 A2997 RMK A01 T00500003  RH  072%=      5-min Rain = 0
KSLS 191210Z 32005KT 05/00 A2997 RMK A01 T00540003  RH  070%=      5-min Rain = 0
KSLS 191215Z 31005KT 05/00 A2997 RMK A01 T00500001  RH  071%=      5-min Rain = 0
KSLS 191220Z 34002KT 05/00 A2997 RMK A01 T00490002  RH  072%=      5-min Rain = 0
KSLS 191225Z 31004KT 05/00 A2997 RMK A01 T00480000  RH  072%=      5-min Rain = 0
KSLS 191230Z 30004KT 04/M00 A2996 RMK A01 T00411003  RH  074%=      5-min Rain = 0
KSLS 191235Z 31004KT 04/M00 A2996 RMK A01 T00381001  RH  077%=      5-min Rain = 0
KSLS 191240Z 36002KT 05/00 A2996 RMK A01 T00460002  RH  074%=      5-min Rain = 0
KSLS 191245Z 01003KT 05/00 A2996 RMK A01 T00470002  RH  073%=      5-min Rain = 0
KSLS 191250Z 36002KT 05/00 A2996 RMK A01 T00490002  RH  072%=      5-min Rain = 0
KSLS 191255Z 36003KT 05/00 A2996 RMK A01 T00530002  RH  071%=      5-min Rain = 0
KSLS 191300Z 00003KT 05/00 A2996 RMK A01 T00530002  RH  070%=      5-min Rain = 0
KSLS 191305Z 35004KT 05/00 A2996 RMK A01 T00510001  RH  071%=      5-min Rain = 0
KSLS 191310Z 35004KT 05/00 A2996 RMK A01 T00510001  RH  071%=      5-min Rain = 0
KSLS 191315Z 36004KT 05/00 A2996 RMK A01 T00500001  RH  071%=      5-min Rain = 0
KSLS 191320Z 00005KT 05/00 A2996 RMK A01 T00510001  RH  071%=      5-min Rain = 0
KSLS 191325Z 00004KT 05/00 A2996 RMK A01 T00510001  RH  071%=      5-min Rain = 0
KSLS 191330Z 00004KT 05/00 A2996 RMK A01 T00520001  RH  071%=      5-min Rain = 0
KSLS 191335Z 00003KT 05/00 A2996 RMK A01 T00530001  RH  070%=      5-min Rain = 0
KSLS 191340Z 00002KT 06/00 A2996 RMK A01 T00550001  RH  069%=      5-min Rain = 0
KSLS 191345Z 01001KT 06/00 A2996 RMK A01 T00580002  RH  068%=      5-min Rain = 0
KSLS 191350Z 01001KT 06/00 A2996 RMK A01 T00570001  RH  068%=      5-min Rain = 0
KSLS 191355Z 35002KT 06/00 A2996 RMK A01 T00560001  RH  068%=      5-min Rain = 0
KSLS 191400Z 34002KT 06/00 A2996 RMK A01 T00580001  RH  068%=      5-min Rain = 0
KSLS 191405Z 34002KT 06/00 A2996 RMK A01 T00600003  RH  067%=      5-min Rain = 0
KSLS 191410Z 34002KT 06/01 A2996 RMK A01 T00620009  RH  069%=      5-min Rain = 0
KSLS 191415Z 00003KT 07/01 A2996 RMK A01 T00690008  RH  066%=      5-min Rain = 0
KSLS 191420Z 01002KT 07/01 A2997 RMK A01 T00740010  RH  064%=      5-min Rain = 0
KSLS 191425Z 02001KT 08/01 A2997 RMK A01 T00790010  RH  063%=      5-min Rain = 0
KSLS 191430Z 03001KT 08/01 A2997 RMK A01 T00830012  RH  062%=      5-min Rain = 0
KSLS 191435Z 07001KT 09/02 A2997 RMK A01 T00870016  RH  062%=      5-min Rain = 0
KSLS 191440Z 09001KT 09/02 A2997 RMK A01 T00930017  RH  060%=      5-min Rain = 0
KSLS 191445Z 09000KT 10/02 A2997 RMK A01 T00990019  RH  058%=      5-min Rain = 0
KSLS 191450Z 04001KT 10/01 A2997 RMK A01 T00980014  RH  057%=      5-min Rain = 0
KSLS 191455Z 17000KT 10/02 A2997 RMK A01 T00980016  RH  057%=      5-min Rain = 0
KSLS 191500Z 17002KT 11/03 A2997 RMK A01 T01060025  RH  058%=      5-min Rain = 0
KSLS 191505Z 15001KT 12/03 A2997 RMK A01 T01150032  RH  057%=      5-min Rain = 0
KSLS 191510Z 16002KT 12/03 A2998 RMK A01 T01230033  RH  055%=      5-min Rain = 0
KSLS 191515Z 16004KT 12/03 A2998 RMK A01 T01240032  RH  054%=      5-min Rain = 0
KSLS 191520Z 15004KT 13/03 A2998 RMK A01 T01290031  RH  052%=      5-min Rain = 0
KSLS 191525Z 15004KT 13/03 A2998 RMK A01 T01340031  RH  050%=      5-min Rain = 0
KSLS 191530Z 14004KT 14/03 A2998 RMK A01 T01380030  RH  049%=      5-min Rain = 0
KSLS 191535Z 14004KT 14/03 A2998 RMK A01 T01420033  RH  048%=      5-min Rain = 0
KSLS 191540Z 15005KT 15/03 A2998 RMK A01 T01450032  RH  047%=      5-min Rain = 0
KSLS 191545Z 15007KT 15/03 A2998 RMK A01 T01460030  RH  046%=      5-min Rain = 0
KSLS 191550Z 15007KT 15/03 A2998 RMK A01 T01480030  RH  046%=      5-min Rain = 0
KSLS 191555Z 15006KT 15/03 A2998 RMK A01 T01510032  RH  045%=      5-min Rain = 0
KSLS 191600Z 17007KT 15/03 A2998 RMK A01 T01510028  RH  044%=      5-min Rain = 0
KSLS 191605Z 16007KT 15/03 A2998 RMK A01 T01510026  RH  043%=      5-min Rain = 0
KSLS 191610Z 17006KT 15/03 A2998 RMK A01 T01540029  RH  044%=      5-min Rain = 0
KSLS 191615Z 18006KT 16/03 A2998 RMK A01 T01550026  RH  042%=      5-min Rain = 0
KSLS 191620Z 18007KT 16/03 A2998 RMK A01 T01570029  RH  043%=      5-min Rain = 0
KSLS 191625Z 18009KT 16/03 A2997 RMK A01 T01580028  RH  042%=      5-min Rain = 0
KSLS 191630Z 19010KT 16/03 A2997 RMK A01 T01560029  RH  043%=      5-min Rain = 0
KSLS 191635Z 19009KT 16/03 A2997 RMK A01 T01620033  RH  043%=      5-min Rain = 0
KSLS 191640Z 18008KT 16/03 A2997 RMK A01 T01640033  RH  042%=      5-min Rain = 0
KSLS 191645Z 18008KT 17/03 A2996 RMK A01 T01670033  RH  041%=      5-min Rain = 0
KSLS 191650Z 19011KT 17/03 A2996 RMK A01 T01720030  RH  039%=      5-min Rain = 0
KSLS 191655Z 19011KT 18/03 A2996 RMK A01 T01780033  RH  039%=      5-min Rain = 0
KSLS 191700Z 19012KT 18/03 A2996 RMK A01 T01810032  RH  038%=      5-min Rain = 0
KSLS 191705Z 19012KT 18/03 A2996 RMK A01 T01830030  RH  037%=      5-min Rain = 0
KSLS 191710Z 18012KT 19/03 A2995 RMK A01 T01870029  RH  035%=      5-min Rain = 0
KSLS 191715Z 19012KT 19/03 A2995 RMK A01 T01910031  RH  035%=      5-min Rain = 0
KSLS 191720Z 19013KT 19/03 A2995 RMK A01 T01910031  RH  035%=      5-min Rain = 0
KSLS 191725Z 19013KT 19/03 A2995 RMK A01 T01930032  RH  035%=      5-min Rain = 0
KSLS 191730Z 19013KT 20/04 A2995 RMK A01 T01950035  RH  035%=      5-min Rain = 0
KSLS 191735Z 19012KT 20/04 A2994 RMK A01 T01950035  RH  035%=      5-min Rain = 0
KSLS 191740Z 19012KT 20/03 A2994 RMK A01 T02000034  RH  034%=      5-min Rain = 0
KSLS 191745Z 18012KT 20/03 A2994 RMK A01 T02020034  RH  033%=      5-min Rain = 0
KSLS 191750Z 19013KT 20/04 A2994 RMK A01 T02040037  RH  034%=      5-min Rain = 0
KSLS 191755Z 19014KT 21/04 A2994 RMK A01 T02060036  RH  033%=      5-min Rain = 0
KSLS 191800Z 19014KT 21/04 A2993 RMK A01 T02090036  RH  032%=      5-min Rain = 0
KSLS 191805Z 19016KT 21/03 A2993 RMK A01 T02120028  RH  030%=      5-min Rain = 0
KSLS 191810Z 19015KT 22/03 A2992 RMK A01 T02150025  RH  029%=      5-min Rain = 0
KSLS 191815Z 19016KT 22/02 A2992 RMK A01 T02160023  RH  028%=      5-min Rain = 0
KSLS 191820Z 19016KT 22/03 A2992 RMK A01 T02150025  RH  029%=      5-min Rain = 0
KSLS 191825Z 19016KT 22/03 A2992 RMK A01 T02180028  RH  029%=      5-min Rain = 0
KSLS 191830Z 19014G19KT 22/03 A2992 RMK A01 T02210030  RH  029%=      5-min Rain = 0
KSLS 191835Z 19015KT 22/03 A2991 RMK A01 T02240027  RH  028%=      5-min Rain = 0
KSLS 191840Z 19016KT 23/02 A2991 RMK A01 T02260024  RH  027%=      5-min Rain = 0
KSLS 191845Z 19017KT 23/02 A2991 RMK A01 T02270021  RH  026%=      5-min Rain = 0
KSLS 191850Z 19018KT 23/02 A2991 RMK A01 T02270019  RH  026%=      5-min Rain = 0
KSLS 191855Z 19017G22KT 23/02 A299 RMK A01 T02290019  RH  025%=      5-min Rain = 0
KSLS 191900Z 19017KT 23/02 A299 RMK A01 T02300017  RH  025%=      5-min Rain = 0
KSLS 191905Z 18019KT 23/01 A299 RMK A01 T02310014  RH  024%=      5-min Rain = 0
KSLS 191910Z 19019G24KT 23/01 A2989 RMK A01 T02320014  RH  024%=      5-min Rain = 0
KSLS 191915Z 19020KT 23/01 A2989 RMK A01 T02310011  RH  024%=      5-min Rain = 0
KSLS 191920Z 19019KT 23/01 A2989 RMK A01 T02330014  RH  024%=      5-min Rain = 0
KSLS 191925Z 19020G25KT 23/01 A2989 RMK A01 T02330013  RH  024%=      5-min Rain = 0
KSLS 191930Z 19018G23KT 23/01 A2988 RMK A01 T02330014  RH  024%=      5-min Rain = 0
KSLS 191935Z 19019KT 23/01 A2988 RMK A01 T02330013  RH  024%=      5-min Rain = 0
KSLS 191940Z 19019G24KT 23/01 A2988 RMK A01 T02340014  RH  024%=      5-min Rain = 0
KSLS 191945Z 19018G24KT 23/02 A2988 RMK A01 T02340015  RH  024%=      5-min Rain = 0
KSLS 191950Z 18018KT 24/02 A2987 RMK A01 T02350017  RH  024%=      5-min Rain = 0
KSLS 191955Z 18016G21KT 24/02 A2987 RMK A01 T02390020  RH  024%=      5-min Rain = 0
KSLS 192000Z 19015G20KT 24/02 A2987 RMK A01 T02400022  RH  024%=      5-min Rain = 0
KSLS 192005Z 18017G24KT 24/02 A2987 RMK A01 T02390016  RH  023%=      5-min Rain = 0
KSLS 192010Z 19017G22KT 24/02 A2986 RMK A01 T02400015  RH  023%=      5-min Rain = 0
KSLS 192015Z 18015KT 24/02 A2986 RMK A01 T02410021  RH  024%=      5-min Rain = 0
KSLS 192020Z 19016G22KT 24/02 A2986 RMK A01 T02400016  RH  023%=      5-min Rain = 0
KSLS 192025Z 19015KT 24/02 A2986 RMK A01 T02400015  RH  023%=      5-min Rain = 0
KSLS 192030Z 18016KT 24/02 A2985 RMK A01 T02400018  RH  024%=      5-min Rain = 0
KSLS 192035Z 19015G20KT 24/02 A2985 RMK A01 T02400020  RH  024%=      5-min Rain = 0
KSLS 192040Z 18016G21KT 24/01 A2985 RMK A01 T02400013  RH  023%=      5-min Rain = 0
KSLS 192045Z 18016KT 24/01 A2985 RMK A01 T02410013  RH  023%=      5-min Rain = 0
KSLS 192050Z 19015G20KT 24/01 A2985 RMK A01 T02350012  RH  023%=      5-min Rain = 0
KSLS 192055Z 20014KT 23/01 A2985 RMK A01 T02290012  RH  024%=      5-min Rain = 0
KSLS 192100Z 19013KT 23/01 A2985 RMK A01 T02290013  RH  024%=      5-min Rain = 0
KSLS 192105Z 19011KT 23/02 A2984 RMK A01 T02320015  RH  024%=      5-min Rain = 0
KSLS 192110Z 18013G18KT 24/02 A2984 RMK A01 T02380016  RH  024%=      5-min Rain = 0
KSLS 192115Z 18014KT 24/01 A2984 RMK A01 T02390011  RH  023%=      5-min Rain = 0
KSLS 192120Z 18015KT 24/01 A2983 RMK A01 T02380011  RH  023%=      5-min Rain = 0
KSLS 192125Z 18013KT 24/01 A2983 RMK A01 T02420012  RH  022%=      5-min Rain = 0
KSLS 192130Z 19014G19KT 24/01 A2983 RMK A01 T02440012  RH  022%=      5-min Rain = 0
KSLS 192135Z 18015KT 24/01 A2983 RMK A01 T02380010  RH  023%=      5-min Rain = 0
KSLS 192140Z 18014G19KT 24/01 A2983 RMK A01 T02430014  RH  022%=      5-min Rain = 0
KSLS 192145Z 18016KT 24/01 A2983 RMK A01 T02380014  RH  023%=      5-min Rain = 0
KSLS 192150Z 18015KT 23/02 A2983 RMK A01 T02330015  RH  024%=      5-min Rain = 0
KSLS 192155Z 18015G20KT 24/02 A2983 RMK A01 T02390018  RH  024%=      5-min Rain = 0
KSLS 192200Z 18015KT 24/02 A2982 RMK A01 T02380016  RH  024%=      5-min Rain = 0
KSLS 192205Z 18014KT 24/02 A2983 RMK A01 T02390019  RH  024%=      5-min Rain = 0
KSLS 192210Z 17013KT 24/02 A2982 RMK A01 T02390021  RH  024%=      5-min Rain = 0
KSLS 192215Z 17013G18KT 24/02 A2982 RMK A01 T02400020  RH  024%=      5-min Rain = 0
KSLS 192220Z 17013KT 24/02 A2982 RMK A01 T02350017  RH  024%=      5-min Rain = 0
KSLS 192225Z 17012KT 23/02 A2982 RMK A01 T02290017  RH  025%=      5-min Rain = 0
KSLS 192230Z 16011KT 23/02 A2982 RMK A01 T02260020  RH  026%=      5-min Rain = 0
KSLS 192235Z 17011KT 22/02 A2982 RMK A01 T02230022  RH  027%=      5-min Rain = 0
KSLS 192240Z 17010KT 22/02 A2982 RMK A01 T02200022  RH  027%=      5-min Rain = 0
KSLS 192245Z 17012KT 22/02 A2982 RMK A01 T02200018  RH  027%=      5-min Rain = 0
KSLS 192250Z 17013KT 22/02 A2982 RMK A01 T02210018  RH  027%=      5-min Rain = 0
KSLS 192255Z 18011KT 22/02 A2982 RMK A01 T02210021  RH  027%=      5-min Rain = 0
KSLS 192300Z 17011KT 22/02 A2982 RMK A01 T02200021  RH  027%=      5-min Rain = 0
KSLS 192305Z 17012KT 22/02 A2982 RMK A01 T02180019  RH  027%=      5-min Rain = 0
KSLS 192310Z 17012KT 22/02 A2982 RMK A01 T02150017  RH  027%=      5-min Rain = 0
KSLS 192315Z 17011KT 21/02 A2982 RMK A01 T02120017  RH  028%=      5-min Rain = 0
KSLS 192320Z 17010KT 21/02 A2982 RMK A01 T02080018  RH  029%=      5-min Rain = 0
KSLS 192325Z 17010KT 20/02 A2982 RMK A01 T02040019  RH  030%=      5-min Rain = 0
KSLS 192330Z 17009KT 20/02 A2982 RMK A01 T01970020  RH  031%=      5-min Rain = 0
KSLS 192335Z 17009KT 19/02 A2982 RMK A01 T01910021  RH  033%=      5-min Rain = 0
KSLS 192340Z 16009KT 19/02 A2982 RMK A01 T01850023  RH  034%=      5-min Rain = 0
KSLS 192345Z 16009KT 18/02 A2982 RMK A01 T01820024  RH  035%=      5-min Rain = 0
KSLS 192350Z 16009KT 18/03 A2982 RMK A01 T01810025  RH  036%=      5-min Rain = 0
KSLS 192355Z 16009KT 18/03 A2982 RMK A01 T01760026  RH  037%=      5-min Rain = 0
KSLS 200000Z 16008KT 17/03 A2982 RMK A01 T01700027  RH  039%=      5-min Rain = 0
KSLS 200005Z 16008KT 16/03 A2983 RMK A01 T01640027  RH  040%=      5-min Rain = 0
KSLS 200010Z 15008KT 16/03 A2982 RMK A01 T01580028  RH  042%=      5-min Rain = 0
KSLS 200015Z 15008KT 15/03 A2982 RMK A01 T01530029  RH  044%=      5-min Rain = 0
KSLS 200020Z 15009KT 15/03 A2982 RMK A01 T01510030  RH  045%=      5-min Rain = 0
KSLS 200025Z 15009KT 15/03 A2983 RMK A01 T01490030  RH  045%=      5-min Rain = 0
KSLS 200030Z 15009KT 15/03 A2983 RMK A01 T01470031  RH  046%=      5-min Rain = 0
KSLS 200035Z 15008KT 14/03 A2983 RMK A01 T01420030  RH  047%=      5-min Rain = 0
KSLS 200040Z 15008KT 14/03 A2983 RMK A01 T01380030  RH  049%=      5-min Rain = 0
KSLS 200045Z 15008KT 14/03 A2983 RMK A01 T01350031  RH  050%=      5-min Rain = 0
KSLS 200050Z 15008KT 13/03 A2983 RMK A01 T01320030  RH  051%=      5-min Rain = 0
KSLS 200055Z 15009KT 13/03 A2983 RMK A01 T01290030  RH  052%=      5-min Rain = 0
KSLS 200100Z 15009KT 13/03 A2982 RMK A01 T01270031  RH  053%=      5-min Rain = 0
KSLS 200105Z 16009KT 13/03 A2982 RMK A01 T01270032  RH  053%=      5-min Rain = 0
KSLS 200110Z 16009KT 13/03 A2982 RMK A01 T01300034  RH  053%=      5-min Rain = 0
KSLS 200115Z 16009KT 13/03 A2982 RMK A01 T01280034  RH  053%=      5-min Rain = 0
KSLS 200120Z 16008KT 13/03 A2983 RMK A01 T01270034  RH  054%=      5-min Rain = 0
KSLS 200125Z 17008KT 13/04 A2983 RMK A01 T01270037  RH  055%=      5-min Rain = 0
KSLS 200130Z 17008KT 13/04 A2983 RMK A01 T01290038  RH  055%=      5-min Rain = 0
KSLS 200135Z 18008KT 12/04 A2983 RMK A01 T01230037  RH  056%=      5-min Rain = 0
KSLS 200140Z 18008KT 12/04 A2983 RMK A01 T01200036  RH  057%=      5-min Rain = 0
KSLS 200145Z 18008KT 12/04 A2983 RMK A01 T01180035  RH  057%=      5-min Rain = 0
KSLS 200150Z 18008KT 12/03 A2983 RMK A01 T01170034  RH  057%=      5-min Rain = 0
KSLS 200155Z 17008KT 12/03 A2983 RMK A01 T01150034  RH  058%=      5-min Rain = 0
KSLS 200200Z 17008KT 12/04 A2983 RMK A01 T01160035  RH  058%=      5-min Rain = 0
KSLS 200205Z 17008KT 12/04 A2983 RMK A01 T01170035  RH  058%=      5-min Rain = 0
KSLS 200210Z 18009KT 11/04 A2984 RMK A01 T01140035  RH  059%=      5-min Rain = 0
KSLS 200215Z 18009KT 11/04 A2984 RMK A01 T01120036  RH  060%=      5-min Rain = 0
KSLS 200220Z 18009KT 11/04 A2984 RMK A01 T01130036  RH  060%=      5-min Rain = 0
KSLS 200225Z 18010KT 11/04 A2984 RMK A01 T01140036  RH  059%=      5-min Rain = 0
KSLS 200230Z 19010KT 12/04 A2984 RMK A01 T01160036  RH  059%=      5-min Rain = 0
KSLS 200235Z 19010KT 12/04 A2984 RMK A01 T01170036  RH  058%=      5-min Rain = 0
KSLS 200240Z 19010KT 12/04 A2984 RMK A01 T01160036  RH  059%=      5-min Rain = 0
KSLS 200245Z 19009KT 12/04 A2984 RMK A01 T01160036  RH  059%=      5-min Rain = 0
KSLS 200250Z 19009KT 11/04 A2984 RMK A01 T01130036  RH  060%=      5-min Rain = 0
KSLS 200255Z 19009KT 11/04 A2984 RMK A01 T01110035  RH  060%=      5-min Rain = 0
KSLS 200300Z 19010KT 11/04 A2983 RMK A01 T01110036  RH  060%=      5-min Rain = 0
KSLS 200305Z 19010KT 11/04 A2983 RMK A01 T01100035  RH  061%=      5-min Rain = 0
KSLS 200310Z 19010KT 11/04 A2983 RMK A01 T01090035  RH  061%=      5-min Rain = 0
KSLS 200315Z 19011KT 11/04 A2983 RMK A01 T01090036  RH  061%=      5-min Rain = 0
KSLS 200320Z 19011KT 11/04 A2983 RMK A01 T01120037  RH  061%=      5-min Rain = 0
KSLS 200325Z 19011KT 11/04 A2983 RMK A01 T01130037  RH  060%=      5-min Rain = 0
KSLS 200330Z 19011KT 11/04 A2983 RMK A01 T01120038  RH  061%=      5-min Rain = 0
KSLS 200335Z 19011KT 12/04 A2984 RMK A01 T01150040  RH  061%=      5-min Rain = 0
KSLS 200340Z 19011KT 12/04 A2984 RMK A01 T01150042  RH  061%=      5-min Rain = 0
KSLS 200345Z 19011KT 12/05 A2984 RMK A01 T01190045  RH  061%=      5-min Rain = 0
KSLS 200350Z 20011KT 12/05 A2984 RMK A01 T01240049  RH  061%=      5-min Rain = 0
KSLS 200355Z 19011KT 13/05 A2984 RMK A01 T01290051  RH  060%=      5-min Rain = 0
KSLS 200400Z 19011KT 13/05 A2983 RMK A01 T01270050  RH  060%=      5-min Rain = 0
KSLS 200405Z 19012KT 13/05 A2983 RMK A01 T01260051  RH  061%=      5-min Rain = 0
KSLS 200410Z 19012KT 13/05 A2983 RMK A01 T01270052  RH  061%=      5-min Rain = 0
KSLS 200415Z 19013KT 13/06 A2983 RMK A01 T01320056  RH  060%=      5-min Rain = 0
KSLS 200420Z 19013KT 14/06 A2983 RMK A01 T01360057  RH  060%=      5-min Rain = 0
KSLS 200425Z 19011KT 13/06 A2983 RMK A01 T01340057  RH  061%=      5-min Rain = 0
KSLS 200430Z 19012KT 13/06 A2983 RMK A01 T01310058  RH  062%=      5-min Rain = 0
KSLS 200435Z 19012KT 13/06 A2983 RMK A01 T01310059  RH  063%=      5-min Rain = 0
KSLS 200440Z 19013KT 13/06 A2983 RMK A01 T01320061  RH  063%=      5-min Rain = 0
KSLS 200445Z 19013KT 14/06 A2983 RMK A01 T01350063  RH  063%=      5-min Rain = 0
KSLS 200450Z 20013KT 14/07 A2983 RMK A01 T01380065  RH  062%=      5-min Rain = 0
KSLS 200455Z 20014KT 14/07 A2983 RMK A01 T01410066  RH  062%=      5-min Rain = 0
KSLS 200500Z 20014KT 14/07 A2983 RMK A01 T01410067  RH  062%=      5-min Rain = 0
KSLS 200505Z 20015KT 14/07 A2983 RMK A01 T01420069  RH  062%=      5-min Rain = 0
KSLS 200510Z 20014KT 14/07 A2984 RMK A01 T01420070  RH  063%=      5-min Rain = 0
KSLS 200515Z 20015KT 14/07 A2984 RMK A01 T01430072  RH  063%=      5-min Rain = 0
KSLS 200520Z 20015KT 14/07 A2984 RMK A01 T01440073  RH  063%=      5-min Rain = 0
KSLS 200525Z 19016KT 15/07 A2983 RMK A01 T01460074  RH  063%=      5-min Rain = 0
KSLS 200530Z 20017KT 15/08 A2984 RMK A01 T01470075  RH  063%=      5-min Rain = 0
KSLS 200535Z 19015KT 15/08 A2984 RMK A01 T01480076  RH  063%=      5-min Rain = 0
KSLS 200540Z 20016KT 15/08 A2983 RMK A01 T01490078  RH  063%=      5-min Rain = 0
KSLS 200545Z 19016KT 15/08 A2983 RMK A01 T01490079  RH  063%=      5-min Rain = 0
KSLS 200550Z 19015G20KT 15/08 A2983 RMK A01 T01500079  RH  064%=      5-min Rain = 0
KSLS 200555Z 19015KT 15/08 A2983 RMK A01 T01500080  RH  064%=      5-min Rain = 0

Page generated in 0.023 seconds.